Neligh, NE

7:00 PM CST on December 26, 2014 (GMT -0600)
KNENELIG1 | Change Station
CLOSE
Current Station
Personal Weather Station
Location: Neligh, NE
Elevation: 1750 ft
Nearby Weather Stations
Active Advisory: Winter Weather Advisory

Elev 1750 ft 42.13 °N, 98.03 °W | Updated 1 second ago

Snow
Snow
23.1 °F
Feels Like 23 °F
N
3.0
Wind Variable Wind from NNW
Gusts 11.0 mph

Today
High -- | Low -- °F
--% Chance of Precip.
Yesterday
High -- | Low -- °F
Precip. -- in
7:59 AM 5:06 PM
Waxing Crescent, 31% visible
Pressure 30.05 in
Visibility 2.0 miles
Clouds Overcast 800 ft
Windchill 23 °F
Dew Point 21 °F
Humidity 92%
Rainfall -999.00 in
Snow Depth Not available.
UV 0 out of 12
Pollen .10 out of 12
Air Quality Not available.
Flu Activity Not available.
METAR KBVN 270055Z AUTO 36012G18KT 2SM -SN OVC008 M05/M07 A3005 RMK AO2 T10471070

More Conditions Fewer Conditions

Pressure 30.05 in
Visibility 2.0 miles
Clouds Overcast 800 ft
Windchill 23 °F
Dew Point 21 °F
Humidity 92%
Rainfall -999.00 in
Snow Depth Not available.
UV 0 out of 12
Pollen .10 out of 12
Air Quality Not available.
Flu Activity Not available.
METAR KBVN 270055Z AUTO 36012G18KT 2SM -SN OVC008 M05/M07 A3005 RMK AO2 T10471070

More Conditions Fewer Conditions

10-Day Weather Forecast

Almanac

Astronomy

Dec. 26, 2014 Rise Set
Actual Time
Civil Twilight
Nautical Twilight
Astronomical Twilight
Moon
Length of Visible Light
Length of Day
Tomorrow will be .
, % of the Moon is Illuminated

Today's Extremes

State Highs State Lows

Community

WunderPhotos

Upload Photos

1,780,800 photos uploaded!

WunderBlogs® & News

Nearby

Air Quality

  Air Quality AQ Index Pollutant
Not available.

Snow Depth

Station Depth Elevation

Earthquake Activity

City Distance Mag. Time & Date
Minimum magnitude displayed is 2.5.

Coastal Water Temperatures

Place Temperature

Nearby Weather Stations